createdAt,value
2018-02-04T00:00:55.418Z,1000.83
2018-02-04T00:02:16.409Z,1000.84
2018-02-04T00:02:55.397Z,1000.85
2018-02-04T00:03:55.385Z,1000.89
2018-02-04T00:04:55.383Z,1000.92
2018-02-04T00:05:55.370Z,1000.93
2018-02-04T00:06:55.359Z,1000.92
2018-02-04T00:08:16.356Z,1001.00
2018-02-04T00:08:55.338Z,1000.96
2018-02-04T00:09:55.333Z,1000.99
2018-02-04T00:10:55.323Z,1000.99
2018-02-04T00:11:55.312Z,1001.05
2018-02-04T00:12:55.302Z,1000.98
2018-02-04T00:14:16.293Z,1001.03
2018-02-04T00:14:55.286Z,1001.04
2018-02-04T00:15:55.277Z,1001.05
2018-02-04T00:16:55.268Z,1001.04
2018-02-04T00:17:55.254Z,1001.03
2018-02-04T00:18:55.242Z,1001.06
2018-02-04T00:20:16.241Z,1001.05
2018-02-04T00:20:55.230Z,1001.09
2018-02-04T00:21:55.217Z,1001.09
2018-02-04T00:22:55.207Z,1001.10
2018-02-04T00:23:55.201Z,1001.09
2018-02-04T00:24:55.188Z,1001.08
2018-02-04T00:26:16.193Z,1001.08
2018-02-04T00:26:55.173Z,1001.09
2018-02-04T00:27:55.162Z,1001.12
2018-02-04T00:28:55.153Z,1001.15
2018-02-04T00:29:55.140Z,1001.12
2018-02-04T00:30:55.130Z,1001.11
2018-02-04T00:32:16.124Z,1001.14
2018-02-04T00:32:55.112Z,1001.19
2018-02-04T00:33:55.102Z,1001.16
2018-02-04T00:34:55.093Z,1001.14
2018-02-04T00:35:55.084Z,1001.14
2018-02-04T00:36:55.080Z,1001.15
2018-02-04T00:38:16.089Z,1001.16
2018-02-04T00:38:55.054Z,1001.16
2018-02-04T00:39:55.049Z,1001.16
2018-02-04T00:40:55.043Z,1001.15
2018-02-04T00:41:55.023Z,1001.18
2018-02-04T00:42:55.021Z,1001.19
2018-02-04T00:44:16.022Z,1001.17
2018-02-04T00:44:54.997Z,1001.12
2018-02-04T00:45:54.987Z,1001.13
2018-02-04T00:46:54.983Z,1001.13
2018-02-04T00:47:54.972Z,1001.16
2018-02-04T00:48:54.963Z,1001.17
2018-02-04T00:50:15.980Z,1001.20
2018-02-04T00:50:54.944Z,1001.19
2018-02-04T00:51:54.930Z,1001.20
2018-02-04T00:52:54.926Z,1001.18
2018-02-04T00:53:54.917Z,1001.27
2018-02-04T00:54:54.908Z,1001.21
2018-02-04T00:56:15.899Z,1001.22
2018-02-04T00:56:54.890Z,1001.24
2018-02-04T00:57:54.877Z,1001.22
2018-02-04T00:58:54.872Z,1001.23
2018-02-04T00:59:54.863Z,1001.26
2018-02-04T01:00:54.851Z,1001.25
2018-02-04T01:02:15.850Z,1001.23
2018-02-04T01:02:54.831Z,1001.24
2018-02-04T01:03:54.824Z,1001.23
2018-02-04T01:04:54.818Z,1001.26
2018-02-04T01:05:54.802Z,1001.29
2018-02-04T01:06:54.794Z,1001.28
2018-02-04T01:08:15.794Z,1001.28
2018-02-04T01:08:54.780Z,1001.29
2018-02-04T01:09:54.773Z,1001.32
2018-02-04T01:10:54.760Z,1001.31
2018-02-04T01:11:54.744Z,1001.31
2018-02-04T01:12:54.742Z,1001.34
2018-02-04T01:14:15.735Z,1001.33
2018-02-04T01:14:54.722Z,1001.38
2018-02-04T01:15:54.710Z,1001.41
2018-02-04T01:16:54.703Z,1001.43
2018-02-04T01:17:54.693Z,1001.37
2018-02-04T01:18:54.684Z,1001.40
2018-02-04T01:20:15.686Z,1001.43
2018-02-04T01:20:54.669Z,1001.43
2018-02-04T01:21:54.659Z,1001.43
2018-02-04T01:22:54.653Z,1001.40
2018-02-04T01:23:54.639Z,1001.42
2018-02-04T01:24:54.632Z,1001.41
2018-02-04T01:26:15.624Z,1001.42
2018-02-04T01:26:54.609Z,1001.48
2018-02-04T01:27:54.602Z,1001.49
2018-02-04T01:28:54.593Z,1001.51
2018-02-04T01:29:54.580Z,1001.48
2018-02-04T01:30:54.575Z,1001.51
2018-02-04T01:32:15.574Z,1001.51
2018-02-04T01:32:54.557Z,1001.52
2018-02-04T01:33:54.548Z,1001.57
2018-02-04T01:34:54.536Z,1001.57
2018-02-04T01:35:54.527Z,1001.54
2018-02-04T01:36:54.515Z,1001.55
2018-02-04T01:38:15.513Z,1001.62
2018-02-04T01:38:55.254Z,1001.59
2018-02-04T01:39:54.488Z,1001.59
2018-02-04T01:40:54.481Z,1001.58
2018-02-04T01:41:54.468Z,1001.60
2018-02-04T01:42:54.461Z,1001.63
2018-02-04T01:44:15.459Z,1001.66
2018-02-04T01:44:54.445Z,1001.66
2018-02-04T01:45:54.434Z,1001.63
2018-02-04T01:46:54.422Z,1001.67
2018-02-04T01:47:54.418Z,1001.62
2018-02-04T01:48:54.407Z,1001.62
2018-02-04T01:50:15.404Z,1001.66
2018-02-04T01:50:54.390Z,1001.69
2018-02-04T01:51:54.377Z,1001.68
2018-02-04T01:52:54.370Z,1001.66
2018-02-04T01:53:54.358Z,1001.67
2018-02-04T01:54:54.347Z,1001.68
2018-02-04T01:56:15.350Z,1001.72
2018-02-04T01:56:54.330Z,1001.67
2018-02-04T01:57:54.323Z,1001.71
2018-02-04T01:58:54.310Z,1001.72
2018-02-04T01:59:54.301Z,1001.69
2018-02-04T02:00:54.296Z,1001.69
2018-02-04T02:02:15.290Z,1001.72
2018-02-04T02:02:54.278Z,1001.72
2018-02-04T02:03:54.268Z,1001.71
2018-02-04T02:04:54.256Z,1001.73
2018-02-04T02:05:54.249Z,1001.73
2018-02-04T02:06:54.237Z,1001.76
2018-02-04T02:08:15.238Z,1001.75
2018-02-04T02:08:54.219Z,1001.76
2018-02-04T02:09:54.212Z,1001.75
2018-02-04T02:10:54.203Z,1001.75
2018-02-04T02:11:54.832Z,1001.79
2018-02-04T02:12:54.185Z,1001.74
2018-02-04T02:14:15.193Z,1001.78
2018-02-04T02:14:54.162Z,1001.76
2018-02-04T02:15:54.157Z,1001.74
2018-02-04T02:16:54.150Z,1001.74
2018-02-04T02:17:54.137Z,1001.75
2018-02-04T02:18:54.132Z,1001.77
2018-02-04T02:20:15.127Z,1001.73
2018-02-04T02:20:54.114Z,1001.74
2018-02-04T02:21:54.104Z,1001.76
2018-02-04T02:22:54.107Z,1001.71
2018-02-04T02:23:54.082Z,1001.74
2018-02-04T02:24:54.079Z,1001.77
2018-02-04T02:26:15.065Z,1001.75
2018-02-04T02:26:54.054Z,1001.78
2018-02-04T02:27:54.046Z,1001.79
2018-02-04T02:28:54.038Z,1001.80
2018-02-04T02:29:54.026Z,1001.78
2018-02-04T02:30:54.017Z,1001.79
2018-02-04T02:32:15.016Z,1001.81
2018-02-04T02:32:54.000Z,1001.82
2018-02-04T02:33:53.989Z,1001.84
2018-02-04T02:34:53.986Z,1001.85
2018-02-04T02:35:53.972Z,1001.83
2018-02-04T02:36:53.961Z,1001.89
2018-02-04T02:38:14.956Z,1001.88
2018-02-04T02:38:53.945Z,1001.88
2018-02-04T02:39:53.931Z,1001.85
2018-02-04T02:40:53.924Z,1001.90
2018-02-04T02:41:53.917Z,1001.90
2018-02-04T02:42:53.906Z,1001.89
2018-02-04T02:44:14.902Z,1001.90
2018-02-04T02:44:53.887Z,1001.92
2018-02-04T02:45:53.878Z,1001.90
2018-02-04T02:46:53.868Z,1001.92
2018-02-04T02:47:53.858Z,1001.95
2018-02-04T02:48:53.858Z,1001.95
2018-02-04T02:50:14.847Z,1001.91
2018-02-04T02:50:53.831Z,1001.94
2018-02-04T02:51:53.818Z,1002.00
2018-02-04T02:52:53.817Z,1002.02
2018-02-04T02:53:53.803Z,1001.98
2018-02-04T02:54:53.796Z,1002.03
2018-02-04T02:56:14.786Z,1001.99
2018-02-04T02:56:53.777Z,1002.03
2018-02-04T02:57:53.767Z,1002.05
2018-02-04T02:58:53.760Z,1002.07
2018-02-04T02:59:53.747Z,1002.07
2018-02-04T03:00:53.737Z,1002.07
2018-02-04T03:02:14.734Z,1002.06
2018-02-04T03:02:53.718Z,1002.05
2018-02-04T03:03:53.717Z,1002.09
2018-02-04T03:04:53.700Z,1002.10
2018-02-04T03:05:53.691Z,1002.13
2018-02-04T03:06:53.683Z,1002.14
2018-02-04T03:08:14.677Z,1002.13
2018-02-04T03:08:53.663Z,1002.17
2018-02-04T03:09:53.647Z,1002.17
2018-02-04T03:10:53.643Z,1002.17
2018-02-04T03:11:53.635Z,1002.22
2018-02-04T03:12:53.629Z,1002.19
2018-02-04T03:14:14.616Z,1002.16
2018-02-04T03:14:53.607Z,1002.18
2018-02-04T03:15:53.603Z,1002.17
2018-02-04T03:16:53.589Z,1002.22
2018-02-04T03:17:53.575Z,1002.22
2018-02-04T03:18:53.568Z,1002.23
2018-02-04T03:20:14.564Z,1002.22
2018-02-04T03:20:53.551Z,1002.20
2018-02-04T03:21:53.540Z,1002.23
2018-02-04T03:22:54.275Z,1002.25
2018-02-04T03:23:53.518Z,1002.25
2018-02-04T03:24:53.511Z,1002.24
2018-02-04T03:26:14.508Z,1002.26
2018-02-04T03:26:53.490Z,1002.27
2018-02-04T03:27:53.484Z,1002.28
2018-02-04T03:28:53.472Z,1002.29
2018-02-04T03:29:53.468Z,1002.33
2018-02-04T03:30:53.458Z,1002.35
2018-02-04T03:32:14.453Z,1002.34
2018-02-04T03:32:53.438Z,1002.37
2018-02-04T03:33:53.429Z,1002.36
2018-02-04T03:34:53.415Z,1002.35
2018-02-04T03:35:53.409Z,1002.42
2018-02-04T03:36:53.401Z,1002.44
2018-02-04T03:38:14.399Z,1002.42
2018-02-04T03:38:53.378Z,1002.47
2018-02-04T03:39:53.373Z,1002.45
2018-02-04T03:40:53.363Z,1002.45
2018-02-04T03:41:53.359Z,1002.51
2018-02-04T03:42:53.359Z,1002.51
2018-02-04T03:44:14.341Z,1002.51
2018-02-04T03:44:53.328Z,1002.54
2018-02-04T03:45:53.322Z,1002.53
2018-02-04T03:46:53.308Z,1002.56
2018-02-04T03:47:53.299Z,1002.54
2018-02-04T03:48:53.289Z,1002.59
2018-02-04T03:50:14.288Z,1002.55
2018-02-04T03:50:53.273Z,1002.58
2018-02-04T03:51:53.263Z,1002.61
2018-02-04T03:52:53.261Z,1002.61
2018-02-04T03:53:53.265Z,1002.62
2018-02-04T03:54:53.236Z,1002.62
2018-02-04T03:56:14.247Z,1002.69
2018-02-04T03:56:53.217Z,1002.70
2018-02-04T03:57:53.206Z,1002.69
2018-02-04T03:58:53.201Z,1002.70
2018-02-04T03:59:53.199Z,1002.71
2018-02-04T04:00:53.183Z,1002.73
2018-02-04T04:02:14.173Z,1002.76
2018-02-04T04:02:53.163Z,1002.69
2018-02-04T04:03:53.152Z,1002.76
2018-02-04T04:04:53.163Z,1002.72
2018-02-04T04:05:53.150Z,1002.73
2018-02-04T04:06:53.160Z,1002.72
2018-02-04T04:08:14.123Z,1002.75
2018-02-04T04:08:53.125Z,1002.70
2018-02-04T04:09:53.130Z,1002.72
2018-02-04T04:10:53.101Z,1002.74
2018-02-04T04:11:53.077Z,1002.75
2018-02-04T04:12:53.078Z,1002.75
2018-02-04T04:14:14.068Z,1002.74
2018-02-04T04:14:53.054Z,1002.77
2018-02-04T04:15:53.042Z,1002.79
2018-02-04T04:16:53.034Z,1002.82
2018-02-04T04:17:53.020Z,1002.79
2018-02-04T04:18:53.014Z,1002.81
2018-02-04T04:20:14.013Z,1002.82
2018-02-04T04:20:53.017Z,1002.84
2018-02-04T04:21:52.991Z,1002.83
2018-02-04T04:22:52.991Z,1002.84
2018-02-04T04:23:52.964Z,1002.86
2018-02-04T04:24:52.964Z,1002.87
2018-02-04T04:26:13.955Z,1002.91
2018-02-04T04:26:52.942Z,1002.93
2018-02-04T04:27:52.932Z,1002.93
2018-02-04T04:28:52.923Z,1002.90
2018-02-04T04:29:52.912Z,1002.89
2018-02-04T04:30:52.902Z,1002.91
2018-02-04T04:32:13.898Z,1002.91
2018-02-04T04:32:52.893Z,1002.91
2018-02-04T04:33:52.883Z,1002.95
2018-02-04T04:34:52.881Z,1002.93
2018-02-04T04:35:52.868Z,1003.00
2018-02-04T04:36:52.858Z,1003.02
2018-02-04T04:38:13.843Z,1003.01
2018-02-04T04:38:52.826Z,1003.02
2018-02-04T04:39:52.830Z,1003.03
2018-02-04T04:40:52.811Z,1003.04
2018-02-04T04:41:52.799Z,1003.04
2018-02-04T04:42:52.793Z,1003.07
2018-02-04T04:44:13.791Z,1003.06
2018-02-04T04:44:52.770Z,1003.06
2018-02-04T04:45:52.766Z,1003.06
2018-02-04T04:46:52.755Z,1003.06
2018-02-04T04:47:52.748Z,1003.07
2018-02-04T04:48:52.740Z,1003.06
2018-02-04T04:50:13.735Z,1003.07
2018-02-04T04:50:52.717Z,1003.09
2018-02-04T04:51:52.710Z,1003.10
2018-02-04T04:52:52.699Z,1003.09
2018-02-04T04:53:52.685Z,1003.09
2018-02-04T04:54:52.680Z,1003.10
2018-02-04T04:56:13.677Z,1003.11
2018-02-04T04:56:52.662Z,1003.13
2018-02-04T04:57:52.656Z,1003.16
2018-02-04T04:58:52.642Z,1003.13
2018-02-04T04:59:52.633Z,1003.16
2018-02-04T05:00:52.622Z,1003.19
2018-02-04T05:02:13.622Z,1003.20
2018-02-04T05:02:52.603Z,1003.18
2018-02-04T05:03:52.599Z,1003.19
2018-02-04T05:04:52.585Z,1003.22
2018-02-04T05:05:52.582Z,1003.23
2018-02-04T05:06:52.567Z,1003.22
2018-02-04T05:08:13.565Z,1003.26
2018-02-04T05:08:52.577Z,1003.25
2018-02-04T05:09:52.536Z,1003.25
2018-02-04T05:10:52.526Z,1003.24
2018-02-04T05:11:52.518Z,1003.28
2018-02-04T05:12:52.508Z,1003.24
2018-02-04T05:14:13.500Z,1003.27
2018-02-04T05:14:52.485Z,1003.25
2018-02-04T05:15:52.479Z,1003.28
2018-02-04T05:16:52.469Z,1003.34
2018-02-04T05:17:52.463Z,1003.30
2018-02-04T05:18:52.448Z,1003.28
2018-02-04T05:20:13.449Z,1003.26
2018-02-04T05:20:52.428Z,1003.25
2018-02-04T05:21:52.422Z,1003.25
2018-02-04T05:22:52.412Z,1003.27
2018-02-04T05:23:52.401Z,1003.29
2018-02-04T05:24:52.391Z,1003.28
2018-02-04T05:26:13.386Z,1003.31
2018-02-04T05:26:52.372Z,1003.33
2018-02-04T05:27:52.365Z,1003.35
2018-02-04T05:28:52.379Z,1003.31
2018-02-04T05:29:52.347Z,1003.31
2018-02-04T05:30:52.332Z,1003.32
2018-02-04T05:32:13.332Z,1003.35
2018-02-04T05:32:52.317Z,1003.35
2018-02-04T05:33:52.307Z,1003.36
2018-02-04T05:34:52.298Z,1003.40
2018-02-04T05:35:52.291Z,1003.36
2018-02-04T05:36:52.280Z,1003.42
2018-02-04T05:38:13.298Z,1003.47
2018-02-04T05:38:52.264Z,1003.46
2018-02-04T05:39:52.253Z,1003.49
2018-02-04T05:40:52.241Z,1003.47
2018-02-04T05:41:52.227Z,1003.51
2018-02-04T05:42:52.221Z,1003.50
2018-02-04T05:44:13.218Z,1003.48
2018-02-04T05:44:52.204Z,1003.49
2018-02-04T05:45:52.193Z,1003.50
2018-02-04T05:46:52.180Z,1003.50
2018-02-04T05:47:52.175Z,1003.49
2018-02-04T05:48:52.164Z,1003.51
2018-02-04T05:50:13.175Z,1003.52
2018-02-04T05:50:52.148Z,1003.51
2018-02-04T05:51:52.132Z,1003.53
2018-02-04T05:52:52.123Z,1003.54
2018-02-04T05:53:52.115Z,1003.58
2018-02-04T05:54:52.111Z,1003.57
2018-02-04T05:56:13.103Z,1003.57
2018-02-04T05:56:52.086Z,1003.60
2018-02-04T05:57:52.079Z,1003.61
2018-02-04T05:58:52.070Z,1003.65
2018-02-04T05:59:52.060Z,1003.63
2018-02-04T06:00:52.052Z,1003.68
2018-02-04T06:02:13.046Z,1003.68
2018-02-04T06:02:52.028Z,1003.71
2018-02-04T06:03:52.019Z,1003.73
2018-02-04T06:04:52.012Z,1003.74
2018-02-04T06:05:52.002Z,1003.78
2018-02-04T06:06:51.989Z,1003.80
2018-02-04T06:08:12.991Z,1003.80
2018-02-04T06:08:51.968Z,1003.83
2018-02-04T06:09:51.964Z,1003.84
2018-02-04T06:10:51.954Z,1003.84
2018-02-04T06:11:51.942Z,1003.91
2018-02-04T06:12:51.937Z,1003.91
2018-02-04T06:14:12.932Z,1003.95
2018-02-04T06:14:51.916Z,1003.95
2018-02-04T06:15:51.910Z,1004.01
2018-02-04T06:16:51.894Z,1004.03
2018-02-04T06:17:51.889Z,1004.07
2018-02-04T06:18:51.875Z,1004.09
2018-02-04T06:20:12.876Z,1004.11
2018-02-04T06:20:51.859Z,1004.10
2018-02-04T06:21:51.848Z,1004.13
2018-02-04T06:22:51.842Z,1004.11
2018-02-04T06:23:51.832Z,1004.13
2018-02-04T06:24:51.820Z,1004.18
2018-02-04T06:26:12.815Z,1004.20
2018-02-04T06:26:51.801Z,1004.20
2018-02-04T06:27:51.815Z,1004.27
2018-02-04T06:28:51.780Z,1004.24
2018-02-04T06:29:51.776Z,1004.25
2018-02-04T06:30:51.768Z,1004.23
2018-02-04T06:32:12.764Z,1004.22
2018-02-04T06:32:51.746Z,1004.27
2018-02-04T06:33:51.737Z,1004.20
2018-02-04T06:34:51.724Z,1004.25
2018-02-04T06:35:51.719Z,1004.31
2018-02-04T06:36:51.706Z,1004.30
2018-02-04T06:38:12.704Z,1004.32
2018-02-04T06:38:51.688Z,1004.34
2018-02-04T06:39:51.680Z,1004.33
2018-02-04T06:40:51.671Z,1004.36
2018-02-04T06:41:51.657Z,1004.35
2018-02-04T06:42:51.653Z,1004.39
2018-02-04T06:44:12.648Z,1004.38
2018-02-04T06:44:51.635Z,1004.42
2018-02-04T06:45:51.622Z,1004.42
2018-02-04T06:46:51.616Z,1004.45
2018-02-04T06:47:51.603Z,1004.44
2018-02-04T06:48:51.600Z,1004.42
2018-02-04T06:50:12.588Z,1004.45
2018-02-04T06:50:51.573Z,1004.48
2018-02-04T06:51:51.562Z,1004.50
2018-02-04T06:52:51.554Z,1004.47
2018-02-04T06:53:52.942Z,1004.49
2018-02-04T06:54:51.538Z,1004.47
2018-02-04T06:56:12.532Z,1004.49
2018-02-04T06:56:51.518Z,1004.45
2018-02-04T06:57:51.508Z,1004.50
2018-02-04T06:58:51.500Z,1004.47
2018-02-04T06:59:51.488Z,1004.52
2018-02-04T07:00:51.482Z,1004.51
2018-02-04T07:02:12.475Z,1004.53
2018-02-04T07:02:51.461Z,1004.51
2018-02-04T07:03:51.479Z,1004.57
2018-02-04T07:04:51.443Z,1004.58
2018-02-04T07:05:51.434Z,1004.63
2018-02-04T07:06:51.421Z,1004.65
2018-02-04T07:08:12.421Z,1004.68
2018-02-04T07:08:51.404Z,1004.69
2018-02-04T07:09:51.398Z,1004.73
2018-02-04T07:10:51.388Z,1004.72
2018-02-04T07:11:51.377Z,1004.78
2018-02-04T07:12:51.368Z,1004.75
2018-02-04T07:14:12.364Z,1004.81
2018-02-04T07:14:51.349Z,1004.83
2018-02-04T07:15:51.343Z,1004.84
2018-02-04T07:16:51.331Z,1004.86
2018-02-04T07:17:51.320Z,1004.85
2018-02-04T07:18:51.310Z,1004.89
2018-02-04T07:20:12.312Z,1004.89
2018-02-04T07:20:51.302Z,1004.88
2018-02-04T07:21:51.286Z,1004.91
2018-02-04T07:22:51.274Z,1004.92
2018-02-04T07:23:51.262Z,1004.92
2018-02-04T07:24:51.260Z,1004.96
2018-02-04T07:26:12.249Z,1005.01
2018-02-04T07:26:51.237Z,1005.02
2018-02-04T07:27:51.229Z,1005.07
2018-02-04T07:28:51.220Z,1005.02
2018-02-04T07:29:51.208Z,1005.06
2018-02-04T07:30:51.202Z,1005.04
2018-02-04T07:32:12.198Z,1005.08
2018-02-04T07:32:51.184Z,1005.07
2018-02-04T07:33:51.169Z,1005.10
2018-02-04T07:34:51.165Z,1005.11
2018-02-04T07:35:51.162Z,1005.18
2018-02-04T07:36:51.164Z,1005.23
2018-02-04T07:38:12.140Z,1005.27
2018-02-04T07:38:51.126Z,1005.34
2018-02-04T07:39:51.116Z,1005.50
2018-02-04T07:40:51.112Z,1005.54
2018-02-04T07:41:51.103Z,1005.53
2018-02-04T07:42:51.093Z,1005.49
2018-02-04T07:44:12.085Z,1005.57
2018-02-04T07:44:51.072Z,1005.54
2018-02-04T07:45:51.062Z,1005.52
2018-02-04T07:46:51.053Z,1005.58
2018-02-04T07:47:51.044Z,1005.55
2018-02-04T07:48:51.035Z,1005.57
2018-02-04T07:50:12.028Z,1005.60
2018-02-04T07:50:51.013Z,1005.60
2018-02-04T07:51:51.006Z,1005.70
2018-02-04T07:52:50.997Z,1005.72
2018-02-04T07:53:50.983Z,1005.77
2018-02-04T07:54:50.980Z,1005.76
2018-02-04T07:56:11.968Z,1005.80
2018-02-04T07:56:50.954Z,1005.81
2018-02-04T07:57:50.949Z,1005.87
2018-02-04T07:58:50.938Z,1005.85
2018-02-04T07:59:50.928Z,1005.93
2018-02-04T08:00:50.918Z,1005.92
2018-02-04T08:02:11.912Z,1006.01
2018-02-04T08:02:50.911Z,1006.06
2018-02-04T08:03:50.891Z,1006.04
2018-02-04T08:04:50.880Z,1006.11
2018-02-04T08:05:50.869Z,1006.16
2018-02-04T08:06:50.895Z,1006.10
2018-02-04T08:08:11.853Z,1006.12
2018-02-04T08:08:50.841Z,1006.18
2018-02-04T08:09:50.826Z,1006.21
2018-02-04T08:10:50.819Z,1006.26
2018-02-04T08:11:50.811Z,1006.24
2018-02-04T08:12:50.801Z,1006.29
2018-02-04T08:14:11.792Z,1006.31
2018-02-04T08:14:50.794Z,1006.34
2018-02-04T08:15:50.771Z,1006.38
2018-02-04T08:16:50.760Z,1006.36
2018-02-04T08:17:50.753Z,1006.37
2018-02-04T08:18:50.737Z,1006.39
2018-02-04T08:20:11.741Z,1006.37
2018-02-04T08:20:50.722Z,1006.38
2018-02-04T08:21:50.704Z,1006.43
2018-02-04T08:22:50.714Z,1006.47
2018-02-04T08:23:50.691Z,1006.48
2018-02-04T08:24:50.676Z,1006.47
2018-02-04T08:26:11.675Z,1006.49
2018-02-04T08:26:50.663Z,1006.48
2018-02-04T08:27:50.653Z,1006.46
2018-02-04T08:28:50.642Z,1006.54
2018-02-04T08:29:50.678Z,1006.53
2018-02-04T08:30:50.624Z,1006.56
2018-02-04T08:32:11.618Z,1006.58
2018-02-04T08:32:50.604Z,1006.57
2018-02-04T08:33:50.591Z,1006.57
2018-02-04T08:34:50.581Z,1006.59
2018-02-04T08:35:50.573Z,1006.61
2018-02-04T08:36:50.564Z,1006.59
2018-02-04T08:38:11.556Z,1006.62
2018-02-04T08:38:50.541Z,1006.67
2018-02-04T08:39:50.529Z,1006.67
2018-02-04T08:40:50.523Z,1006.67
2018-02-04T08:41:50.512Z,1006.68
2018-02-04T08:42:50.503Z,1006.74
2018-02-04T08:44:11.500Z,1006.74
2018-02-04T08:44:50.487Z,1006.72
2018-02-04T08:45:50.469Z,1006.75
2018-02-04T08:46:50.468Z,1006.74
2018-02-04T08:47:50.456Z,1006.75
2018-02-04T08:48:50.444Z,1006.77
2018-02-04T08:50:11.432Z,1006.84
2018-02-04T08:50:50.423Z,1006.83
2018-02-04T08:51:50.415Z,1006.85
2018-02-04T08:52:50.406Z,1006.89
2018-02-04T08:53:50.394Z,1006.91
2018-02-04T08:54:50.384Z,1006.92
2018-02-04T08:56:11.382Z,1006.96
2018-02-04T08:56:50.362Z,1006.96
2018-02-04T08:57:50.354Z,1006.95
2018-02-04T08:58:50.348Z,1006.98
2018-02-04T08:59:50.332Z,1007.01
2018-02-04T09:00:50.326Z,1007.03
2018-02-04T09:02:11.319Z,1007.05
2018-02-04T09:02:50.304Z,1007.04
2018-02-04T09:03:50.294Z,1007.11
2018-02-04T09:04:50.286Z,1007.13
2018-02-04T09:05:50.276Z,1007.14
2018-02-04T09:06:50.261Z,1007.17
2018-02-04T09:08:11.309Z,1007.18
2018-02-04T09:08:50.246Z,1007.20
2018-02-04T09:09:50.234Z,1007.19
2018-02-04T09:10:50.227Z,1007.23
2018-02-04T09:11:50.214Z,1007.22
2018-02-04T09:12:50.204Z,1007.25
2018-02-04T09:14:11.205Z,1007.25
2018-02-04T09:14:50.182Z,1007.27
2018-02-04T09:15:50.175Z,1007.30
2018-02-04T09:16:50.162Z,1007.31
2018-02-04T09:17:50.156Z,1007.36
2018-02-04T09:18:50.147Z,1007.36
2018-02-04T09:20:11.142Z,1007.37
2018-02-04T09:20:50.128Z,1007.40
2018-02-04T09:21:50.116Z,1007.40
2018-02-04T09:22:50.154Z,1007.43
2018-02-04T09:23:50.099Z,1007.46
2018-02-04T09:24:50.087Z,1007.46
2018-02-04T09:26:11.098Z,1007.45
2018-02-04T09:26:50.062Z,1007.46
2018-02-04T09:27:50.058Z,1007.47
2018-02-04T09:28:50.048Z,1007.48
2018-02-04T09:29:50.038Z,1007.47
2018-02-04T09:30:50.028Z,1007.47
2018-02-04T09:32:11.027Z,1007.51
2018-02-04T09:32:50.057Z,1007.48
2018-02-04T09:33:50.000Z,1007.51
2018-02-04T09:34:49.991Z,1007.55
2018-02-04T09:35:49.980Z,1007.52
2018-02-04T09:36:49.971Z,1007.60
2018-02-04T09:38:10.965Z,1007.61
2018-02-04T09:38:49.950Z,1007.64
2018-02-04T09:39:49.944Z,1007.67
2018-02-04T09:40:49.932Z,1007.69
2018-02-04T09:41:49.918Z,1007.69
2018-02-04T09:42:49.911Z,1007.73
2018-02-04T09:44:10.949Z,1007.74
2018-02-04T09:44:49.891Z,1007.75
2018-02-04T09:45:49.887Z,1007.78
2018-02-04T09:46:49.870Z,1007.75
2018-02-04T09:47:49.869Z,1007.74
2018-02-04T09:48:49.854Z,1007.77
2018-02-04T09:50:10.850Z,1007.75
2018-02-04T09:50:49.834Z,1007.81
2018-02-04T09:51:49.826Z,1007.77
2018-02-04T09:52:49.817Z,1007.79
2018-02-04T09:53:49.805Z,1007.81
2018-02-04T09:54:49.794Z,1007.78
2018-02-04T09:56:10.794Z,1007.82
2018-02-04T09:56:49.780Z,1007.82
2018-02-04T09:57:49.766Z,1007.85
2018-02-04T09:58:49.810Z,1007.85
2018-02-04T09:59:49.748Z,1007.82
2018-02-04T10:00:49.738Z,1007.87
2018-02-04T10:02:10.731Z,1007.88
2018-02-04T10:02:49.722Z,1007.88
2018-02-04T10:03:49.712Z,1007.96
2018-02-04T10:04:49.701Z,1007.92
2018-02-04T10:05:49.687Z,1007.88
2018-02-04T10:06:49.681Z,1007.93
2018-02-04T10:08:10.678Z,1008.00
2018-02-04T10:08:49.659Z,1008.04
2018-02-04T10:09:49.652Z,1008.01
2018-02-04T10:10:49.642Z,1008.05
2018-02-04T10:11:49.631Z,1008.03
2018-02-04T10:12:49.626Z,1008.09
2018-02-04T10:14:10.619Z,1008.09
2018-02-04T10:14:49.606Z,1008.13
2018-02-04T10:15:49.590Z,1008.08
2018-02-04T10:16:49.584Z,1008.12
2018-02-04T10:17:49.577Z,1008.11
2018-02-04T10:18:49.565Z,1008.14
2018-02-04T10:20:10.563Z,1008.17
2018-02-04T10:20:49.546Z,1008.13
2018-02-04T10:21:49.540Z,1008.14
2018-02-04T10:22:49.530Z,1008.14
2018-02-04T10:23:49.517Z,1008.18
2018-02-04T10:24:49.506Z,1008.20
2018-02-04T10:26:10.500Z,1008.19
2018-02-04T10:26:49.485Z,1008.20
2018-02-04T10:27:49.478Z,1008.22
2018-02-04T10:28:49.470Z,1008.23
2018-02-04T10:29:49.459Z,1008.26
2018-02-04T10:30:49.449Z,1008.26
2018-02-04T10:32:10.446Z,1008.27
2018-02-04T10:32:49.434Z,1008.24
2018-02-04T10:33:49.420Z,1008.30
2018-02-04T10:34:49.417Z,1008.31
2018-02-04T10:35:49.401Z,1008.34
2018-02-04T10:36:49.391Z,1008.35
2018-02-04T10:38:10.388Z,1008.33
2018-02-04T10:38:49.369Z,1008.40
2018-02-04T10:39:49.365Z,1008.38
2018-02-04T10:40:49.352Z,1008.36
2018-02-04T10:41:49.343Z,1008.37
2018-02-04T10:42:49.332Z,1008.39
2018-02-04T10:44:10.326Z,1008.37
2018-02-04T10:44:49.315Z,1008.39
2018-02-04T10:45:49.306Z,1008.40
2018-02-04T10:46:49.290Z,1008.41
2018-02-04T10:47:49.285Z,1008.40
2018-02-04T10:48:49.275Z,1008.47
2018-02-04T10:50:10.272Z,1008.46
2018-02-04T10:50:49.268Z,1008.47
2018-02-04T10:51:49.247Z,1008.46
2018-02-04T10:52:49.259Z,1008.48
2018-02-04T10:53:49.227Z,1008.50
2018-02-04T10:54:49.217Z,1008.51
2018-02-04T10:56:10.213Z,1008.52
2018-02-04T10:56:49.195Z,1008.50
2018-02-04T10:57:49.193Z,1008.47
2018-02-04T10:58:49.188Z,1008.48
2018-02-04T10:59:49.181Z,1008.48
2018-02-04T11:00:49.160Z,1008.46
2018-02-04T11:02:10.153Z,1008.50
2018-02-04T11:02:49.161Z,1008.53
2018-02-04T11:03:49.131Z,1008.55
2018-02-04T11:04:49.121Z,1008.55
2018-02-04T11:05:49.113Z,1008.56
2018-02-04T11:06:49.111Z,1008.59
2018-02-04T11:08:10.096Z,1008.60
2018-02-04T11:08:49.079Z,1008.62
2018-02-04T11:09:49.072Z,1008.58
2018-02-04T11:10:49.058Z,1008.62
2018-02-04T11:11:49.076Z,1008.61
2018-02-04T11:12:49.075Z,1008.62
2018-02-04T11:14:10.040Z,1008.61
2018-02-04T11:14:49.039Z,1008.63
2018-02-04T11:15:49.021Z,1008.60
2018-02-04T11:16:49.004Z,1008.64
2018-02-04T11:17:49.012Z,1008.60
2018-02-04T11:18:49.024Z,1008.60
2018-02-04T11:20:09.981Z,1008.61
2018-02-04T11:20:48.962Z,1008.62
2018-02-04T11:21:48.967Z,1008.65
2018-02-04T11:22:48.951Z,1008.63
2018-02-04T11:23:48.949Z,1008.61
2018-02-04T11:24:48.938Z,1008.67
2018-02-04T11:26:09.922Z,1008.64
2018-02-04T11:26:48.902Z,1008.67
2018-02-04T11:27:48.915Z,1008.67
2018-02-04T11:28:48.918Z,1008.70
2018-02-04T11:29:48.887Z,1008.68
2018-02-04T11:30:48.867Z,1008.71
2018-02-04T11:32:09.865Z,1008.71
2018-02-04T11:32:48.849Z,1008.69
2018-02-04T11:33:48.847Z,1008.74
2018-02-04T11:34:48.841Z,1008.74
2018-02-04T11:35:48.835Z,1008.69
2018-02-04T11:36:48.818Z,1008.72
2018-02-04T11:38:09.803Z,1008.73
2018-02-04T11:38:48.793Z,1008.75
2018-02-04T11:39:48.782Z,1008.74
2018-02-04T11:40:48.776Z,1008.78
2018-02-04T11:41:48.778Z,1008.79
2018-02-04T11:42:48.753Z,1008.74
2018-02-04T11:44:09.746Z,1008.74
2018-02-04T11:44:48.736Z,1008.74
2018-02-04T11:45:48.734Z,1008.80
2018-02-04T11:46:48.713Z,1008.80
2018-02-04T11:47:48.730Z,1008.79
2018-02-04T11:48:48.693Z,1008.86
2018-02-04T11:50:09.686Z,1008.85
2018-02-04T11:50:48.675Z,1008.82
2018-02-04T11:51:48.667Z,1008.79
2018-02-04T11:52:48.657Z,1008.85
2018-02-04T11:53:48.649Z,1008.85
2018-02-04T11:54:48.632Z,1008.85
2018-02-04T11:56:09.633Z,1008.89
2018-02-04T11:56:48.620Z,1008.89
2018-02-04T11:57:49.501Z,1008.90
2018-02-04T11:58:48.597Z,1008.96
2018-02-04T11:59:48.589Z,1008.99
2018-02-04T12:00:48.578Z,1008.96
2018-02-04T12:02:09.570Z,1008.99
2018-02-04T12:02:49.460Z,1009.03
2018-02-04T12:03:48.548Z,1009.03
2018-02-04T12:04:48.539Z,1009.02
2018-02-04T12:05:48.529Z,1008.99